Time;durP1;ratioP1;P1;durP2;ratioP2;P2;SDS_P1;SDS_P2;PMS_P1;PMS_P2;Temp;Humidity;BMP_temperature;BMP_pressure;BME280_temperature;BME280_humidity;BME280_pressure;Samples;Min_cycle;Max_cycle;Signal;HPM_P1;HPM_P2
2021/04/19 00:00:24;;;;;;;21.57;16.57;;;;;;;9.58;100.00;101421.78;4922758;28;20238;-72
2021/04/19 00:02:55;;;;;;;20.97;16.80;;;;;;;9.42;100.00;101420.97;4922964;29;20188;-72
2021/04/19 00:05:21;;;;;;;21.57;17.17;;;;;;;9.46;100.00;101427.56;4923790;28;20733;-73
2021/04/19 00:07:49;;;;;;;24.53;17.37;;;;;;;9.50;100.00;101424.09;4939928;29;20200;-73
2021/04/19 00:10:18;;;;;;;21.77;16.60;;;;;;;9.56;100.00;101419.56;4906829;28;20266;-73
2021/04/19 00:12:46;;;;;;;20.70;16.97;;;;;;;9.70;100.00;101421.69;4923504;29;20263;-73
2021/04/19 00:15:13;;;;;;;22.23;16.93;;;;;;;9.57;100.00;101425.56;4923446;28;20195;-73
2021/04/19 00:17:43;;;;;;;22.10;17.10;;;;;;;9.52;100.00;101430.09;4908237;29;20199;-75
2021/04/19 00:20:09;;;;;;;22.70;17.77;;;;;;;9.59;100.00;101428.03;4908221;28;20239;-73
2021/04/19 00:22:35;;;;;;;21.87;18.10;;;;;;;9.50;100.00;101431.41;4940022;29;20195;-74
2021/04/19 00:25:00;;;;;;;25.57;17.57;;;;;;;9.57;100.00;101425.56;4924673;29;20206;-73
2021/04/19 00:27:26;;;;;;;21.90;17.40;;;;;;;9.54;100.00;101427.13;4922648;29;20227;-73
2021/04/19 00:29:51;;;;;;;24.67;17.33;;;;;;;9.44;100.00;101427.78;4922067;29;20192;-73
2021/04/19 00:32:19;;;;;;;20.87;16.57;;;;;;;9.23;100.00;101433.13;4937326;29;20227;-74
2021/04/19 00:34:50;;;;;;;25.07;17.13;;;;;;;9.36;100.00;101432.81;4922078;29;20742;-74
2021/04/19 00:37:19;;;;;;;19.90;15.57;;;;;;;9.25;100.00;101437.22;4921345;29;20754;-73
2021/04/19 00:39:47;;;;;;;22.13;15.77;;;;;;;9.16;100.00;101427.03;4937627;29;20222;-72
2021/04/19 00:42:13;;;;;;;20.53;16.10;;;;;;;9.23;100.00;101430.41;4951596;28;20243;-73
2021/04/19 00:44:39;;;;;;;22.90;16.17;;;;;;;9.24;100.00;101422.00;4937854;29;20277;-74
2021/04/19 00:47:04;;;;;;;19.37;15.43;;;;;;;9.15;100.00;101425.38;4905303;29;20238;-74
2021/04/19 00:49:30;;;;;;;21.50;15.57;;;;;;;9.17;100.00;101423.25;4905467;29;20669;-73
2021/04/19 00:51:58;;;;;;;21.27;14.77;;;;;;;9.30;100.00;101425.63;4919539;29;21070;-73
2021/04/19 00:54:24;;;;;;;19.80;15.57;;;;;;;9.19;100.00;101420.28;4905205;29;20215;-73
2021/04/19 00:56:52;;;;;;;22.20;15.40;;;;;;;9.26;100.00;101429.91;4921144;29;20278;-73
2021/04/19 00:59:18;;;;;;;21.20;15.53;;;;;;;9.37;100.00;101429.84;4922077;29;20249;-73
2021/04/19 01:01:47;;;;;;;20.37;15.20;;;;;;;9.47;100.00;101430.03;4919432;29;20247;-73
2021/04/19 01:04:13;;;;;;;21.47;15.57;;;;;;;9.44;100.00;101435.09;4936168;29;20203;-73
2021/04/19 01:06:40;;;;;;;21.00;15.10;;;;;;;9.28;100.00;101425.06;4905206;29;20714;-73
2021/04/19 01:09:09;;;;;;;22.67;15.73;;;;;;;9.40;100.00;101428.53;4937135;29;20199;-74
2021/04/19 01:11:36;;;;;;;20.47;15.83;;;;;;;9.48;100.00;101428.13;4921424;29;20704;-75
2021/04/19 01:14:06;;;;;;;19.80;15.03;;;;;;;9.41;100.00;101435.59;4939594;29;20195;-73
2021/04/19 01:16:32;;;;;;;24.77;16.23;;;;;;;9.47;100.00;101434.59;4923431;29;20229;-74
2021/04/19 01:18:58;;;;;;;18.83;15.67;;;;;;;9.50;100.00;101442.25;4941714;29;20191;-74
2021/04/19 01:21:28;;;;;;;23.57;17.30;;;;;;;9.42;100.00;101434.53;4938887;28;20241;-73
2021/04/19 01:23:54;;;;;;;23.83;16.30;;;;;;;9.46;100.00;101438.41;4906943;29;20194;-74
2021/04/19 01:26:26;;;;;;;25.03;17.37;;;;;;;9.58;100.00;101443.50;4921252;29;20644;-73
2021/04/19 01:28:56;;;;;;;20.50;16.63;;;;;;;9.54;100.00;101441.53;4918139;29;570054;-72
2021/04/19 01:31:22;;;;;;;24.37;17.10;;;;;;;9.50;100.00;101450.38;4928196;28;20322;-72
2021/04/19 01:33:52;;;;;;;24.03;16.83;;;;;;;9.51;100.00;101446.63;4925992;29;20284;-73
2021/04/19 01:36:17;;;;;;;24.13;17.63;;;;;;;9.43;100.00;101450.56;4926547;29;20234;-73
2021/04/19 01:38:46;;;;;;;24.53;16.77;;;;;;;9.38;100.00;101444.22;4926721;29;20187;-73
2021/04/19 01:41:14;;;;;;;25.43;18.20;;;;;;;9.47;100.00;101451.72;4940587;29;20774;-73
2021/04/19 01:43:43;;;;;;;26.37;17.77;;;;;;;9.49;100.00;101448.75;4910095;29;20255;-72
2021/04/19 01:46:08;;;;;;;23.90;16.87;;;;;;;9.42;100.00;101439.97;4941815;29;20219;-73
2021/04/19 01:48:38;;;;;;;21.43;17.30;;;;;;;9.24;100.00;101434.75;4958571;29;20243;-73
2021/04/19 01:51:04;;;;;;;24.87;17.23;;;;;;;9.21;100.00;101440.66;4926233;29;20294;-73
2021/04/19 01:53:34;;;;;;;22.70;16.90;;;;;;;9.16;100.00;101445.16;4926220;29;20192;-73
2021/04/19 01:56:01;;;;;;;25.63;17.40;;;;;;;9.19;100.00;101440.06;4941515;29;20924;-73
2021/04/19 01:58:32;;;;;;;23.50;16.97;;;;;;;9.25;100.00;101431.00;4942474;29;20187;-74
2021/04/19 02:00:59;;;;;;;24.83;17.27;;;;;;;9.33;100.00;101439.53;4926623;29;20674;-74
2021/04/19 02:03:54;;;;;;;23.10;17.70;;;;;;;9.33;100.00;101436.00;4943185;29;20184;-75
2021/04/19 02:06:37;;;;;;;24.77;18.57;;;;;;;9.41;100.00;101436.41;4931642;29;20227;-74
2021/04/19 02:09:12;;;;;;;26.97;18.10;;;;;;;9.40;100.00;101436.66;4945022;29;20211;-74
2021/04/19 02:11:59;;;;;;;26.93;18.73;;;;;;;9.26;100.00;101432.63;4943326;29;20239;-76
2021/04/19 02:14:39;;;;;;;29.20;19.40;;;;;;;9.35;100.00;101425.72;4942925;28;20290;-74
2021/04/19 02:17:42;;;;;;;25.47;18.73;;;;;;;9.38;100.00;101436.09;4924824;29;20282;-73
2021/04/19 02:20:30;;;;;;;22.90;18.10;;;;;;;9.28;100.00;101425.88;4933141;28;20245;-73
2021/04/19 02:23:03;;;;;;;22.70;17.23;;;;;;;9.34;100.00;101434.91;4926674;29;20210;-73
2021/04/19 02:25:38;;;;;;;24.07;17.73;;;;;;;9.32;100.00;101426.22;4924973;29;20222;-74
2021/04/19 02:28:07;;;;;;;19.70;15.53;;;;;;;9.38;100.00;101425.25;4909249;29;20199;-75
2021/04/19 02:30:34;;;;;;;20.50;15.83;;;;;;;9.43;100.00;101433.44;4923183;29;20243;-74
2021/04/19 02:33:04;;;;;;;22.07;16.27;;;;;;;9.37;100.00;101434.44;4923603;29;20218;-72
2021/04/19 02:35:33;;;;;;;22.27;17.23;;;;;;;9.31;100.00;101424.59;4974371;28;20347;-72
2021/04/19 02:38:11;;;;;;;23.50;16.43;;;;;;;9.31;100.00;101419.97;4944019;29;20185;-73
2021/04/19 02:40:39;;;;;;;21.20;17.00;;;;;;;9.39;100.00;101421.47;4957860;28;20606;-73
2021/04/19 02:43:08;;;;;;;24.23;16.97;;;;;;;9.46;100.00;101422.13;4941150;29;20202;-73
2021/04/19 02:45:38;;;;;;;26.13;18.10;;;;;;;9.41;100.00;101430.97;4957705;28;20277;-73
2021/04/19 02:48:12;;;;;;;23.10;18.40;;;;;;;9.35;100.00;101431.16;4943216;29;20176;-73
2021/04/19 02:50:46;;;;;;;23.33;18.33;;;;;;;9.12;100.00;101428.59;4959006;28;20231;-73
2021/04/19 02:53:12;;;;;;;26.20;18.67;;;;;;;9.13;100.00;101432.94;4958113;28;20217;-72
2021/04/19 02:55:37;;;;;;;24.23;18.23;;;;;;;9.00;100.00;101444.06;4958789;28;20211;-73
2021/04/19 02:58:06;;;;;;;26.10;18.30;;;;;;;9.08;100.00;101446.38;4959337;29;20590;-73
2021/04/19 03:00:54;;;;;;;25.23;18.30;;;;;;;8.86;100.00;101453.56;4974608;28;20310;-73
2021/04/19 03:03:22;;;;;;;26.77;18.23;;;;;;;8.82;100.00;101449.69;4958576;29;20258;-73
2021/04/19 03:05:50;;;;;;;22.97;17.20;;;;;;;8.78;100.00;101450.41;4957668;28;20392;-73
2021/04/19 03:08:18;;;;;;;22.03;17.63;;;;;;;8.56;100.00;101448.59;4974074;28;20207;-73
2021/04/19 03:10:52;;;;;;;22.43;17.37;;;;;;;8.69;100.00;101451.03;4957790;28;20814;-74
2021/04/19 03:13:19;;;;;;;20.30;16.40;;;;;;;8.82;100.00;101448.84;4957653;28;20187;-73
2021/04/19 03:15:51;;;;;;;21.47;16.47;;;;;;;8.93;100.00;101454.22;4974342;28;20243;-73
2021/04/19 03:18:17;;;;;;;21.93;17.40;;;;;;;8.98;100.00;101451.63;4957483;28;20622;-75
2021/04/19 03:21:06;;;;;;;22.47;17.77;;;;;;;9.04;100.00;101445.22;4953958;28;20622;-72
2021/04/19 03:24:00;;;;;;;24.20;17.43;;;;;;;9.06;100.00;101437.66;4941023;29;20201;-73
2021/04/19 03:26:58;;;;;;;23.00;17.73;;;;;;;9.10;100.00;101443.44;4924272;29;20219;-73
2021/04/19 03:29:31;;;;;;;27.87;18.27;;;;;;;8.95;100.00;101445.84;4927505;29;20230;-73
2021/04/19 03:32:16;;;;;;;25.50;18.53;;;;;;;8.74;100.00;101451.16;4942952;29;20223;-73
2021/04/19 03:34:48;;;;;;;25.83;19.73;;;;;;;8.74;100.00;101448.44;4926798;29;20622;-73
2021/04/19 03:37:24;;;;;;;25.17;18.93;;;;;;;8.50;100.00;101446.88;4947139;28;20251;-73
2021/04/19 03:40:01;;;;;;;26.33;18.73;;;;;;;8.58;100.00;101451.91;4926745;29;20238;-73
2021/04/19 03:42:33;;;;;;;26.47;19.30;;;;;;;8.52;100.00;101450.97;4942514;28;20222;-74
2021/04/19 03:45:09;;;;;;;27.10;19.40;;;;;;;8.43;100.00;101444.28;4945726;28;20194;-73
2021/04/19 03:47:56;;;;;;;26.23;18.00;;;;;;;8.53;100.00;101451.78;4945397;28;20341;-74
2021/04/19 03:50:36;;;;;;;24.57;17.93;;;;;;;8.60;100.00;101441.66;4957157;28;20231;-74
2021/04/19 03:53:04;;;;;;;27.47;20.37;;;;;;;8.55;100.00;101444.25;4933702;29;20198;-74
2021/04/19 03:55:34;;;;;;;27.47;20.07;;;;;;;8.35;100.00;101443.00;4928816;29;20931;-73
2021/04/19 03:58:03;;;;;;;23.87;17.20;;;;;;;8.36;100.00;101431.94;4938668;29;20195;-74
2021/04/19 04:00:37;;;;;;;24.97;17.20;;;;;;;8.28;100.00;101443.16;4939793;28;20239;-73
2021/04/19 04:03:21;;;;;;;24.80;17.90;;;;;;;8.43;100.00;101441.56;4937969;29;20190;-74
2021/04/19 04:06:10;;;;;;;28.30;17.90;;;;;;;8.55;100.00;101436.13;4928627;29;20227;-74
2021/04/19 04:08:36;;;;;;;24.07;18.27;;;;;;;8.68;100.00;101438.53;4955276;29;20198;-74
2021/04/19 04:11:02;;;;;;;21.97;16.90;;;;;;;8.70;100.00;101441.84;4938080;29;20232;-74
2021/04/19 04:13:29;;;;;;;25.93;18.60;;;;;;;8.76;100.00;101433.59;4953723;29;20183;-74
2021/04/19 04:15:59;;;;;;;24.87;17.50;;;;;;;8.78;100.00;101428.75;4923274;29;20224;-74
2021/04/19 04:18:31;;;;;;;23.13;16.90;;;;;;;8.87;100.00;101419.97;4938595;29;20287;-74
2021/04/19 04:20:59;;;;;;;22.93;16.43;;;;;;;8.93;100.00;101440.69;4938612;28;20231;-74
2021/04/19 04:23:29;;;;;;;24.30;17.20;;;;;;;8.82;100.00;101441.53;4924100;29;20672;-74
2021/04/19 04:25:55;;;;;;;22.70;16.00;;;;;;;8.95;100.00;101438.53;4937491;29;20263;-74
2021/04/19 04:28:27;;;;;;;23.00;17.43;;;;;;;8.91;100.00;101431.97;4940574;29;20188;-74
2021/04/19 04:31:01;;;;;;;23.30;17.30;;;;;;;8.92;100.00;101425.50;4939629;28;20235;-73
2021/04/19 04:33:37;;;;;;;21.60;16.57;;;;;;;9.00;100.00;101430.53;4923312;29;20191;-74
2021/04/19 04:36:12;;;;;;;25.87;17.60;;;;;;;8.89;100.00;101436.81;4939268;29;20227;-74
2021/04/19 04:38:44;;;;;;;22.87;17.00;;;;;;;8.99;100.00;101444.31;4940303;29;20191;-74
2021/04/19 04:41:15;;;;;;;24.33;18.00;;;;;;;8.94;100.00;101434.22;4953502;28;20723;-74
2021/04/19 04:43:41;;;;;;;21.33;16.77;;;;;;;9.10;100.00;101438.00;4954205;29;20286;-74
2021/04/19 04:46:26;;;;;;;20.57;16.30;;;;;;;9.05;100.00;101438.75;4937850;29;20231;-74
2021/04/19 04:49:02;;;;;;;23.27;16.53;;;;;;;8.49;100.00;101442.50;4941647;29;20188;-73
2021/04/19 04:51:28;;;;;;;21.97;16.50;;;;;;;8.40;100.00;101441.22;4939385;29;20290;-73
2021/04/19 04:54:15;;;;;;;22.60;15.90;;;;;;;8.20;100.00;101435.38;4938053;29;20691;-74
2021/04/19 04:56:41;;;;;;;20.33;15.53;;;;;;;8.33;100.00;101429.69;4939227;29;20231;-75
2021/04/19 04:59:12;;;;;;;21.97;15.70;;;;;;;8.10;100.00;101445.97;4938293;29;20214;-73
2021/04/19 05:01:44;;;;;;;22.53;15.90;;;;;;;8.23;100.00;101445.72;4936902;28;20234;-77
2021/04/19 05:04:10;;;;;;;20.40;15.93;;;;;;;8.44;100.00;101447.78;4938815;29;20219;-74
2021/04/19 05:06:40;;;;;;;21.43;16.17;;;;;;;8.55;100.00;101444.25;4954375;28;20231;-73
2021/04/19 05:09:09;;;;;;;21.60;15.87;;;;;;;8.62;100.00;101439.50;4923088;29;20214;-74
2021/04/19 05:11:41;;;;;;;21.87;16.30;;;;;;;8.75;100.00;101440.03;4922331;29;20235;-76
2021/04/19 05:14:07;;;;;;;21.90;16.37;;;;;;;8.38;100.00;101446.06;4940604;29;20258;-74
2021/04/19 05:16:42;;;;;;;19.80;15.67;;;;;;;8.28;100.00;101448.56;4924900;29;20230;-74
2021/04/19 05:19:08;;;;;;;21.60;15.47;;;;;;;8.26;100.00;101444.41;4940295;29;20255;-74
2021/04/19 05:21:41;;;;;;;22.47;16.07;;;;;;;8.04;100.00;101452.31;4961569;28;20247;-75
2021/04/19 05:24:09;;;;;;;25.27;16.50;;;;;;;8.09;100.00;101449.75;4932189;29;20218;-74
2021/04/19 05:26:37;;;;;;;22.73;16.30;;;;;;;8.10;100.00;101450.59;4931247;29;20229;-73
2021/04/19 05:29:03;;;;;;;22.70;16.67;;;;;;;8.11;100.00;101447.63;4930541;29;20285;-73
2021/04/19 05:31:30;;;;;;;22.90;17.37;;;;;;;7.90;100.00;101460.91;4945756;28;20293;-74
2021/04/19 05:33:58;;;;;;;22.33;16.00;;;;;;;7.88;100.00;101456.78;4929445;29;20195;-74
2021/04/19 05:36:28;;;;;;;22.73;16.67;;;;;;;8.02;100.00;101458.19;4928876;29;20278;-73
2021/04/19 05:38:58;;;;;;;23.07;16.00;;;;;;;7.77;100.00;101465.72;4944044;29;20258;-75
2021/04/19 05:41:23;;;;;;;21.97;16.73;;;;;;;7.77;100.00;101473.84;4943047;28;20233;-73
2021/04/19 05:43:49;;;;;;;24.33;16.90;;;;;;;7.84;100.00;101471.84;4925870;29;20195;-73
2021/04/19 05:46:16;;;;;;;23.00;17.17;;;;;;;7.83;100.00;101471.00;4940403;28;20226;-74
2021/04/19 05:48:41;;;;;;;22.47;16.33;;;;;;;8.05;100.00;101466.66;4942672;29;20279;-74
2021/04/19 05:51:31;;;;;;;24.60;16.77;;;;;;;8.05;100.00;101469.34;4943419;28;20258;-73
2021/04/19 05:53:57;;;;;;;22.47;16.10;;;;;;;8.23;100.00;101478.19;4927564;29;20669;-74
2021/04/19 05:56:46;;;;;;;22.00;16.40;;;;;;;8.37;100.00;101474.19;4926552;29;20230;-73
2021/04/19 05:59:25;;;;;;;21.23;15.83;;;;;;;8.34;100.00;101480.06;4934585;29;20198;-73
2021/04/19 06:01:52;;;;;;;20.73;15.37;;;;;;;8.50;100.00;101476.66;4927614;28;20238;-74
2021/04/19 06:04:26;;;;;;;21.97;15.47;;;;;;;8.76;100.00;101487.75;4927836;29;20195;-73
2021/04/19 06:07:30;;;;;;;20.33;15.47;;;;;;;8.95;100.00;101490.03;4927550;29;20543;-74
2021/04/19 06:10:19;;;;;;;19.47;15.00;;;;;;;9.11;100.00;101491.97;4959486;28;20603;-73
2021/04/19 06:13:01;;;;;;;17.87;14.07;;;;;;;9.32;100.00;101493.97;4943776;29;20195;-74
2021/04/19 06:15:29;;;;;;;18.53;14.03;;;;;;;9.40;100.00;101499.03;4942968;28;20278;-74
2021/04/19 06:17:55;;;;;;;15.30;13.10;;;;;;;9.42;100.00;101496.91;4931534;29;20910;-73
2021/04/19 06:20:26;;;;;;;17.10;13.93;;;;;;;9.47;100.00;101499.69;4930904;28;20218;-73
2021/04/19 06:22:52;;;;;;;17.73;14.03;;;;;;;9.63;100.00;101499.69;4948083;29;20781;-75
2021/04/19 06:25:21;;;;;;;16.60;13.30;;;;;;;9.63;100.00;101495.13;4929771;28;20282;-74
2021/04/19 06:27:48;;;;;;;16.33;12.97;;;;;;;9.63;100.00;101497.84;4931153;29;20230;-73
2021/04/19 06:30:23;;;;;;;16.70;13.00;;;;;;;9.59;100.00;101495.84;4946059;28;20215;-73
2021/04/19 06:32:50;;;;;;;17.27;13.77;;;;;;;9.67;100.00;101492.75;4961555;29;20189;-73
2021/04/19 06:35:20;;;;;;;17.00;13.50;;;;;;;9.61;100.00;101491.84;4929562;28;20274;-73
2021/04/19 06:37:54;;;;;;;17.07;13.77;;;;;;;9.62;100.00;101498.06;4931331;29;20187;-74
2021/04/19 06:40:20;;;;;;;17.10;14.83;;;;;;;9.52;100.00;101497.88;4944853;28;20223;-73
2021/04/19 06:42:48;;;;;;;18.27;14.23;;;;;;;9.46;100.00;101498.84;4928952;29;20198;-74
2021/04/19 06:45:16;;;;;;;18.13;14.23;;;;;;;9.29;100.00;101513.47;4945490;28;20281;-73
2021/04/19 06:47:44;;;;;;;16.43;13.53;;;;;;;9.20;100.00;101497.84;4930920;29;20588;-74
2021/04/19 06:50:12;;;;;;;16.67;13.83;;;;;;;9.25;100.00;101490.63;4929653;28;20209;-73
2021/04/19 06:52:42;;;;;;;19.50;15.40;;;;;;;9.34;100.00;101494.56;4944697;29;20202;-74
2021/04/19 06:55:08;;;;;;;18.10;14.90;;;;;;;9.38;100.00;101495.75;4945801;28;20198;-74
2021/04/19 06:57:40;;;;;;;19.90;14.90;;;;;;;9.65;100.00;101492.97;4946457;28;20736;-76
2021/04/19 07:00:08;;;;;;;20.63;14.57;;;;;;;9.72;100.00;101493.63;4945752;29;20245;-74
2021/04/19 07:02:48;;;;;;;18.17;14.50;;;;;;;9.87;100.00;101490.34;4913567;29;20221;-73
2021/04/19 07:05:17;;;;;;;16.53;14.30;;;;;;;9.79;100.00;101494.28;4930675;28;20202;-74
2021/04/19 07:07:49;;;;;;;18.23;15.20;;;;;;;9.87;100.00;101496.59;4946413;29;20199;-73
2021/04/19 07:10:14;;;;;;;18.57;14.90;;;;;;;9.81;100.00;101503.00;4929852;28;20265;-73
2021/04/19 07:12:45;;;;;;;18.77;15.03;;;;;;;9.52;100.00;101502.47;4959315;29;20179;-73
2021/04/19 07:15:12;;;;;;;17.00;13.73;;;;;;;9.41;100.00;101514.22;4945532;28;20214;-73
2021/04/19 07:17:43;;;;;;;17.40;14.47;;;;;;;9.23;100.00;101499.00;4946367;29;20178;-74
2021/04/19 07:20:14;;;;;;;15.23;13.43;;;;;;;9.17;100.00;101504.56;4961748;28;20223;-74
2021/04/19 07:22:39;;;;;;;15.87;12.57;;;;;;;9.03;100.00;101500.50;4929569;29;20561;-73
2021/04/19 07:25:10;;;;;;;15.87;13.63;;;;;;;9.11;100.00;101494.69;4945430;28;20183;-73
2021/04/19 07:27:39;;;;;;;14.10;12.33;;;;;;;9.32;100.00;101502.13;4960915;28;20191;-75
2021/04/19 07:30:08;;;;;;;17.33;13.13;;;;;;;9.34;100.00;101494.56;4929636;28;20215;-74
2021/04/19 07:32:38;;;;;;;15.27;12.67;;;;;;;9.55;100.00;101502.81;4913402;29;20191;-74
2021/04/19 07:35:07;;;;;;;14.47;12.93;;;;;;;9.69;100.00;101499.56;4925734;28;20179;-72
2021/04/19 07:37:33;;;;;;;14.57;12.40;;;;;;;10.04;100.00;101500.97;4914797;29;20234;-73
2021/04/19 07:40:00;;;;;;;14.70;12.50;;;;;;;10.19;100.00;101497.66;4913447;29;20242;-74
2021/04/19 07:42:28;;;;;;;13.87;11.93;;;;;;;10.41;100.00;101500.16;4960296;28;20265;-72
2021/04/19 07:44:56;;;;;;;15.17;12.27;;;;;;;10.83;100.00;101499.38;4928723;29;20210;-73
2021/04/19 07:47:36;;;;;;;12.40;11.17;;;;;;;11.01;100.00;101490.09;4927866;29;20223;-73
2021/04/19 07:50:14;;;;;;;13.57;12.10;;;;;;;10.80;100.00;101494.47;4944517;29;20198;-74
2021/04/19 07:53:04;;;;;;;13.30;11.43;;;;;;;11.38;100.00;101503.53;4927997;29;20222;-73
2021/04/19 07:55:39;;;;;;;14.80;11.97;;;;;;;11.07;100.00;101505.38;4927073;29;20712;-73
2021/04/19 07:58:05;;;;;;;13.83;12.33;;;;;;;10.85;100.00;101508.09;4975204;28;20183;-73
2021/04/19 08:00:32;;;;;;;13.43;12.13;;;;;;;11.01;100.00;101500.97;4926586;28;20266;-74
2021/04/19 08:03:10;;;;;;;14.10;12.60;;;;;;;11.16;100.00;101500.03;4958028;28;20629;-73
2021/04/19 08:05:40;;;;;;;14.90;13.30;;;;;;;11.03;100.00;101498.81;4942915;29;20226;-75
2021/04/19 08:08:09;;;;;;;14.73;13.07;;;;;;;11.20;100.00;101497.63;4959118;29;20219;-73
2021/04/19 08:10:38;;;;;;;14.87;13.13;;;;;;;10.95;100.00;101491.09;4926618;29;20235;-74
2021/04/19 08:13:05;;;;;;;14.27;12.80;;;;;;;11.21;100.00;101496.56;4926412;29;20673;-73
2021/04/19 08:15:31;;;;;;;15.40;13.00;;;;;;;10.94;100.00;101495.69;4926429;29;20227;-74
2021/04/19 08:18:19;;;;;;;13.90;12.40;;;;;;;11.02;100.00;101497.97;4944502;29;20194;-74
2021/04/19 08:20:53;;;;;;;14.07;12.57;;;;;;;11.45;100.00;101493.31;4943500;28;20266;-73
2021/04/19 08:23:19;;;;;;;14.60;12.97;;;;;;;11.82;100.00;101494.19;4928287;29;20183;-73
2021/04/19 08:25:50;;;;;;;14.83;11.93;;;;;;;11.73;100.00;101493.84;4928186;29;20322;-73
2021/04/19 08:28:19;;;;;;;14.63;11.80;;;;;;;12.06;100.00;101502.53;4947548;29;20187;-74
2021/04/19 08:30:56;;;;;;;13.03;11.73;;;;;;;11.82;100.00;101499.63;4931574;29;20273;-74
2021/04/19 08:33:24;;;;;;;13.93;12.43;;;;;;;12.13;100.00;101492.25;4928839;29;20171;-73
2021/04/19 08:35:52;;;;;;;13.00;11.63;;;;;;;12.30;100.00;101488.25;4941512;29;20230;-74
2021/04/19 08:38:19;;;;;;;13.43;12.00;;;;;;;12.14;100.00;101493.91;4926270;28;20175;-73
2021/04/19 08:40:51;;;;;;;14.00;11.67;;;;;;;12.36;100.00;101486.41;4921488;29;20238;-74
2021/04/19 08:43:24;;;;;;;14.03;12.53;;;;;;;12.15;100.00;101490.09;4922365;29;20196;-73
2021/04/19 08:45:52;;;;;;;13.53;12.13;;;;;;;12.13;100.00;101514.03;4923194;29;20227;-74
2021/04/19 08:48:18;;;;;;;13.60;12.20;;;;;;;11.82;100.00;101511.34;4907231;29;20183;-75
2021/04/19 08:50:46;;;;;;;14.03;12.53;;;;;;;12.10;100.00;101508.28;4906546;29;20274;-74
2021/04/19 08:53:13;;;;;;;13.63;12.20;;;;;;;12.54;100.00;101505.03;4922346;29;20184;-73
2021/04/19 08:55:40;;;;;;;14.60;12.67;;;;;;;12.28;100.00;101497.78;4923028;29;20223;-74
2021/04/19 08:58:10;;;;;;;13.90;12.20;;;;;;;12.77;98.51;101489.91;4907684;29;20274;-73
2021/04/19 09:00:41;;;;;;;13.37;11.97;;;;;;;12.49;99.19;101496.81;4938381;28;20233;-73
2021/04/19 09:03:07;;;;;;;14.50;12.93;;;;;;;12.70;99.36;101492.03;4922399;29;20203;-74
2021/04/19 09:05:35;;;;;;;12.97;11.60;;;;;;;13.14;96.57;101491.41;4922365;29;20223;-74
2021/04/19 09:08:08;;;;;;;13.10;11.70;;;;;;;12.90;95.77;101499.53;4938071;29;20210;-73
2021/04/19 09:10:50;;;;;;;13.47;12.07;;;;;;;12.36;99.74;101497.28;4906480;29;20223;-74
2021/04/19 09:13:32;;;;;;;12.97;11.53;;;;;;;12.46;99.54;101491.91;4931369;29;20190;-73
2021/04/19 09:16:22;;;;;;;13.67;12.20;;;;;;;12.60;100.00;101504.81;4941630;29;20231;-73
2021/04/19 09:18:56;;;;;;;14.63;12.13;;;;;;;12.92;97.46;101490.00;4927922;29;20186;-75
2021/04/19 09:21:33;;;;;;;13.20;11.87;;;;;;;13.79;93.41;101492.38;4956286;28;20238;-76
2021/04/19 09:23:59;;;;;;;13.27;11.87;;;;;;;13.98;94.69;101494.25;4956927;28;20253;-74
2021/04/19 09:26:47;;;;;;;13.90;12.20;;;;;;;13.88;92.91;101491.53;4924831;29;20230;-75
2021/04/19 09:29:37;;;;;;;13.30;11.67;;;;;;;14.07;91.76;101497.31;4924976;29;20207;-75
2021/04/19 09:32:08;;;;;;;13.17;11.77;;;;;;;13.97;89.66;101508.19;4931966;28;20262;-73
2021/04/19 09:34:48;;;;;;;12.77;11.40;;;;;;;13.94;89.89;101504.09;4944267;29;20192;-73
2021/04/19 09:37:18;;;;;;;13.50;12.07;;;;;;;13.05;95.79;101502.31;4944699;29;20330;-75
2021/04/19 09:39:44;;;;;;;15.50;13.67;;;;;;;12.86;99.45;101507.41;4914319;29;20247;-73
2021/04/19 09:42:15;;;;;;;14.10;12.50;;;;;;;12.48;100.00;101511.56;4928704;29;20227;-74
2021/04/19 09:44:53;;;;;;;14.87;12.73;;;;;;;12.13;100.00;101519.47;4911762;29;20264;-73
2021/04/19 09:47:51;;;;;;;14.63;12.97;;;;;;;12.01;100.00;101512.56;4909653;29;20272;-74
2021/04/19 09:50:23;;;;;;;15.00;13.37;;;;;;;12.16;100.00;101518.97;4918961;28;20219;-73
2021/04/19 09:52:52;;;;;;;15.50;13.50;;;;;;;12.03;100.00;101502.25;4943814;29;20282;-74
2021/04/19 09:55:22;;;;;;;15.03;12.40;;;;;;;12.23;100.00;101508.66;4913422;28;20188;-73
2021/04/19 09:57:48;;;;;;;14.47;12.30;;;;;;;12.72;100.00;101497.22;4928599;29;20187;-73
2021/04/19 10:00:14;;;;;;;13.93;12.43;;;;;;;13.20;94.83;101494.97;4910211;28;20222;-73
2021/04/19 10:02:41;;;;;;;12.63;11.33;;;;;;;13.66;91.68;101501.09;4911077;29;20255;-73
2021/04/19 10:05:13;;;;;;;13.97;12.37;;;;;;;13.25;94.75;101504.00;4912513;28;20206;-73
2021/04/19 10:07:45;;;;;;;14.67;12.90;;;;;;;12.61;98.62;101495.53;4896488;29;20223;-74
2021/04/19 10:10:17;;;;;;;14.13;12.17;;;;;;;13.28;97.64;101503.47;4928109;28;20211;-74
2021/04/19 10:12:48;;;;;;;13.97;12.40;;;;;;;13.64;95.64;101491.53;4913015;29;20190;-73
2021/04/19 10:15:18;;;;;;;13.40;12.00;;;;;;;13.95;94.45;101491.25;4927308;28;20191;-74
2021/04/19 10:17:48;;;;;;;13.40;11.20;;;;;;;13.73;91.07;101484.44;4912243;29;20192;-74
2021/04/19 10:20:26;;;;;;;13.83;12.33;;;;;;;13.74;90.59;101475.97;4943295;28;20234;-73
2021/04/19 10:23:06;;;;;;;13.00;11.67;;;;;;;14.15;88.75;101466.69;4911565;29;20195;-74
2021/04/19 10:25:44;;;;;;;13.47;12.17;;;;;;;13.96;87.94;101473.78;4942823;29;20227;-74
2021/04/19 10:28:24;;;;;;;14.57;12.80;;;;;;;13.51;93.12;101470.22;4928688;29;20196;-73
2021/04/19 10:30:50;;;;;;;15.07;12.97;;;;;;;13.21;92.52;101474.81;4920272;29;20244;-73
2021/04/19 10:33:25;;;;;;;13.23;11.83;;;;;;;12.84;94.53;101468.69;4962470;28;20179;-73
2021/04/19 10:35:51;;;;;;;14.03;12.60;;;;;;;13.16;94.08;101463.88;4961520;28;20301;-74
2021/04/19 10:38:24;;;;;;;14.60;13.00;;;;;;;13.42;94.33;101455.47;4962047;28;20284;-74
2021/04/19 10:40:57;;;;;;;15.40;12.30;;;;;;;13.94;92.84;101462.31;4946025;28;20239;-72
2021/04/19 10:43:22;;;;;;;14.00;12.10;;;;;;;13.97;91.64;101459.00;4944602;29;20277;-73
2021/04/19 10:45:48;;;;;;;13.23;11.87;;;;;;;14.66;89.51;101450.69;4945578;29;20214;-74
2021/04/19 10:48:24;;;;;;;14.03;11.93;;;;;;;14.44;88.27;101455.69;4945945;29;20187;-73
2021/04/19 10:50:52;;;;;;;13.73;11.87;;;;;;;14.27;89.53;101454.38;4944192;28;20244;-76
2021/04/19 10:53:51;;;;;;;13.73;12.33;;;;;;;14.39;86.05;101457.59;4953474;28;20633;-76
2021/04/19 10:56:26;;;;;;;13.30;12.00;;;;;;;14.98;85.68;101453.81;4943360;28;20237;-76
2021/04/19 10:58:58;;;;;;;13.00;11.60;;;;;;;15.08;83.25;101457.31;4941742;28;20201;-77
2021/04/19 11:01:35;;;;;;;13.20;11.30;;;;;;;14.29;87.57;101453.00;4939060;28;20242;-76
2021/04/19 11:04:04;;;;;;;12.27;10.10;;;;;;;14.27;85.23;101448.91;4938489;29;20190;-76
2021/04/19 11:06:30;;;;;;;12.57;11.27;;;;;;;14.20;85.76;101442.91;4954686;28;20229;-76
2021/04/19 11:09:05;;;;;;;13.37;11.93;;;;;;;14.30;84.25;101438.25;4922714;29;20581;-76
2021/04/19 11:11:39;;;;;;;12.23;11.03;;;;;;;13.80;86.56;101431.19;4917942;29;20236;-76
2021/04/19 11:14:18;;;;;;;13.17;11.33;;;;;;;13.78;88.48;101432.56;4935256;29;20262;-76
2021/04/19 11:17:07;;;;;;;13.17;11.77;;;;;;;13.98;87.71;101427.88;4934753;28;20231;-76
2021/04/19 11:19:42;;;;;;;12.20;10.90;;;;;;;13.86;89.08;101424.59;4904373;29;20230;-76
2021/04/19 11:22:20;;;;;;;14.83;12.07;;;;;;;14.28;87.10;101429.50;4936938;28;20237;-76
2021/04/19 11:24:45;;;;;;;13.13;11.73;;;;;;;14.36;84.27;101425.38;4941888;28;20568;-76
2021/04/19 11:27:11;;;;;;;13.70;11.50;;;;;;;14.12;86.41;101431.69;4952909;28;20274;-76